sensor_id;sensor_type;location;lat;lon;timestamp;temperature;humidity
66582;SHT31;53438;48.898;2.308;2024-03-23T00:52:09;9.86;81.84
66582;SHT31;53438;48.898;2.308;2024-03-23T00:54:35;10.01;82.67
66582;SHT31;53438;48.898;2.308;2024-03-23T00:57:00;9.93;82.78
66582;SHT31;53438;48.898;2.308;2024-03-23T00:59:25;10.06;82.40
66582;SHT31;53438;48.898;2.308;2024-03-23T04:00:49;8.57;78.64
66582;SHT31;53438;48.898;2.308;2024-03-23T04:03:15;8.73;78.49
66582;SHT31;53438;48.898;2.308;2024-03-23T04:05:40;8.83;78.12
66582;SHT31;53438;48.898;2.308;2024-03-23T04:08:07;8.56;78.24
66582;SHT31;53438;48.898;2.308;2024-03-23T04:10:32;8.63;78.71
66582;SHT31;53438;48.898;2.308;2024-03-23T04:12:58;8.63;78.83
66582;SHT31;53438;48.898;2.308;2024-03-23T04:15:23;8.54;78.61
66582;SHT31;53438;48.898;2.308;2024-03-23T04:17:48;8.61;78.60
66582;SHT31;53438;48.898;2.308;2024-03-23T04:20:14;8.74;78.45
66582;SHT31;53438;48.898;2.308;2024-03-23T04:22:42;8.63;78.84
66582;SHT31;53438;48.898;2.308;2024-03-23T04:25:08;8.57;78.28
66582;SHT31;53438;48.898;2.308;2024-03-23T04:27:33;8.54;78.33
66582;SHT31;53438;48.898;2.308;2024-03-23T04:29:59;8.15;79.40
66582;SHT31;53438;48.898;2.308;2024-03-23T04:32:26;8.42;79.52
66582;SHT31;53438;48.898;2.308;2024-03-23T04:34:52;8.52;79.16
66582;SHT31;53438;48.898;2.308;2024-03-23T04:37:17;8.39;78.41
66582;SHT31;53438;48.898;2.308;2024-03-23T04:39:43;8.16;79.27
66582;SHT31;53438;48.898;2.308;2024-03-23T04:42:08;8.18;79.49
66582;SHT31;53438;48.898;2.308;2024-03-23T04:44:33;8.22;78.96
66582;SHT31;53438;48.898;2.308;2024-03-23T04:47:00;8.18;78.74
66582;SHT31;53438;48.898;2.308;2024-03-23T04:49:27;8.13;78.52
66582;SHT31;53438;48.898;2.308;2024-03-23T04:51:52;8.24;79.20
66582;SHT31;53438;48.898;2.308;2024-03-23T04:54:17;8.16;78.58
66582;SHT31;53438;48.898;2.308;2024-03-23T04:56:43;8.28;78.05
66582;SHT31;53438;48.898;2.308;2024-03-23T04:59:08;8.25;77.95
66582;SHT31;53438;48.898;2.308;2024-03-23T05:01:34;8.22;78.36
66582;SHT31;53438;48.898;2.308;2024-03-23T05:03:59;8.30;78.14
66582;SHT31;53438;48.898;2.308;2024-03-23T05:06:25;8.29;78.18
66582;SHT31;53438;48.898;2.308;2024-03-23T05:08:54;8.42;77.98
66582;SHT31;53438;48.898;2.308;2024-03-23T05:11:19;8.37;77.79
66582;SHT31;53438;48.898;2.308;2024-03-23T05:13:45;8.49;77.58
66582;SHT31;53438;48.898;2.308;2024-03-23T05:16:11;8.36;77.59
66582;SHT31;53438;48.898;2.308;2024-03-23T05:18:36;8.35;77.74
66582;SHT31;53438;48.898;2.308;2024-03-23T05:21:02;8.05;77.30
66582;SHT31;53438;48.898;2.308;2024-03-23T05:23:28;8.35;77.31
66582;SHT31;53438;48.898;2.308;2024-03-23T05:25:54;7.99;77.12
66582;SHT31;53438;48.898;2.308;2024-03-23T05:28:20;8.08;77.75
66582;SHT31;53438;48.898;2.308;2024-03-23T05:30:54;7.99;77.04
66582;SHT31;53438;48.898;2.308;2024-03-23T05:33:21;8.06;77.70
66582;SHT31;53438;48.898;2.308;2024-03-23T05:35:47;8.09;76.50
66582;SHT31;53438;48.898;2.308;2024-03-23T05:38:13;8.02;76.78
66582;SHT31;53438;48.898;2.308;2024-03-23T05:40:39;7.82;77.34
66582;SHT31;53438;48.898;2.308;2024-03-23T05:43:06;7.75;76.81
66582;SHT31;53438;48.898;2.308;2024-03-23T05:45:31;7.94;77.25
66582;SHT31;53438;48.898;2.308;2024-03-23T05:47:56;8.21;76.81
66582;SHT31;53438;48.898;2.308;2024-03-23T05:50:22;7.94;76.18
66582;SHT31;53438;48.898;2.308;2024-03-23T05:52:49;7.96;76.44
66582;SHT31;53438;48.898;2.308;2024-03-23T05:55:14;7.89;77.10
66582;SHT31;53438;48.898;2.308;2024-03-23T05:57:39;8.13;76.09
66582;SHT31;53438;48.898;2.308;2024-03-23T06:00:06;8.25;76.30
66582;SHT31;53438;48.898;2.308;2024-03-23T06:02:35;8.30;75.63
66582;SHT31;53438;48.898;2.308;2024-03-23T06:05:01;8.28;75.65
66582;SHT31;53438;48.898;2.308;2024-03-23T06:07:27;8.16;76.31
66582;SHT31;53438;48.898;2.308;2024-03-23T06:09:52;7.85;77.17
66582;SHT31;53438;48.898;2.308;2024-03-23T06:12:18;7.82;77.20
66582;SHT31;53438;48.898;2.308;2024-03-23T06:14:43;7.82;77.00
66582;SHT31;53438;48.898;2.308;2024-03-23T06:17:08;7.88;77.19
66582;SHT31;53438;48.898;2.308;2024-03-23T06:19:35;7.92;77.23
66582;SHT31;53438;48.898;2.308;2024-03-23T06:22:00;7.99;77.02
66582;SHT31;53438;48.898;2.308;2024-03-23T06:24:26;7.91;77.36
66582;SHT31;53438;48.898;2.308;2024-03-23T06:26:51;7.84;77.09
66582;SHT31;53438;48.898;2.308;2024-03-23T06:29:16;7.99;77.60
66582;SHT31;53438;48.898;2.308;2024-03-23T06:31:42;7.96;77.71
66582;SHT31;53438;48.898;2.308;2024-03-23T06:34:07;7.57;77.93
66582;SHT31;53438;48.898;2.308;2024-03-23T06:36:32;7.89;78.42
66582;SHT31;53438;48.898;2.308;2024-03-23T06:38:58;7.64;78.36
66582;SHT31;53438;48.898;2.308;2024-03-23T06:41:24;7.87;78.64
66582;SHT31;53438;48.898;2.308;2024-03-23T06:43:49;8.01;78.48
66582;SHT31;53438;48.898;2.308;2024-03-23T06:46:14;8.12;77.21
66582;SHT31;53438;48.898;2.308;2024-03-23T06:48:40;8.13;77.52
66582;SHT31;53438;48.898;2.308;2024-03-23T06:51:05;8.36;76.62
66582;SHT31;53438;48.898;2.308;2024-03-23T06:53:31;8.35;75.95
66582;SHT31;53438;48.898;2.308;2024-03-23T06:55:57;8.24;76.45
66582;SHT31;53438;48.898;2.308;2024-03-23T06:58:24;7.99;77.94
66582;SHT31;53438;48.898;2.308;2024-03-23T07:00:49;7.92;78.97
66582;SHT31;53438;48.898;2.308;2024-03-23T07:03:16;7.60;78.04
66582;SHT31;53438;48.898;2.308;2024-03-23T07:05:41;7.30;77.94
66582;SHT31;53438;48.898;2.308;2024-03-23T07:08:07;7.40;77.19
66582;SHT31;53438;48.898;2.308;2024-03-23T07:10:33;7.47;76.99
66582;SHT31;53438;48.898;2.308;2024-03-23T07:12:58;7.24;77.13
66582;SHT31;53438;48.898;2.308;2024-03-23T07:15:24;7.46;77.60
66582;SHT31;53438;48.898;2.308;2024-03-23T07:17:49;7.66;77.21
66582;SHT31;53438;48.898;2.308;2024-03-23T07:20:15;7.44;76.95
66582;SHT31;53438;48.898;2.308;2024-03-23T07:22:40;7.48;77.46
66582;SHT31;53438;48.898;2.308;2024-03-23T07:25:06;7.40;77.96
66582;SHT31;53438;48.898;2.308;2024-03-23T07:27:32;7.43;77.95
66582;SHT31;53438;48.898;2.308;2024-03-23T07:29:59;7.48;77.83
66582;SHT31;53438;48.898;2.308;2024-03-23T07:32:24;7.61;77.54
66582;SHT31;53438;48.898;2.308;2024-03-23T07:34:51;7.79;76.89
66582;SHT31;53438;48.898;2.308;2024-03-23T07:37:17;7.82;77.53
66582;SHT31;53438;48.898;2.308;2024-03-23T07:39:42;7.95;77.83
66582;SHT31;53438;48.898;2.308;2024-03-23T07:42:07;8.16;77.37
66582;SHT31;53438;48.898;2.308;2024-03-23T07:44:33;7.91;78.21
66582;SHT31;53438;48.898;2.308;2024-03-23T07:47:00;7.92;78.32
66582;SHT31;53438;48.898;2.308;2024-03-23T07:49:26;8.26;77.70
66582;SHT31;53438;48.898;2.308;2024-03-23T07:51:51;8.16;76.91
66582;SHT31;53438;48.898;2.308;2024-03-23T07:54:17;8.37;77.20
66582;SHT31;53438;48.898;2.308;2024-03-23T07:56:42;8.39;76.68
66582;SHT31;53438;48.898;2.308;2024-03-23T07:59:07;8.32;75.01
66582;SHT31;53438;48.898;2.308;2024-03-23T08:01:33;8.33;74.79
66582;SHT31;53438;48.898;2.308;2024-03-23T08:03:59;8.29;75.06
66582;SHT31;53438;48.898;2.308;2024-03-23T08:06:24;8.53;75.16
66582;SHT31;53438;48.898;2.308;2024-03-23T08:08:55;8.28;74.86
66582;SHT31;53438;48.898;2.308;2024-03-23T08:11:31;8.25;75.27
66582;SHT31;53438;48.898;2.308;2024-03-23T08:13:57;8.46;74.77
66582;SHT31;53438;48.898;2.308;2024-03-23T08:16:23;8.74;74.48
66582;SHT31;53438;48.898;2.308;2024-03-23T08:18:51;8.94;74.54
66582;SHT31;53438;48.898;2.308;2024-03-23T08:21:17;9.00;74.17
66582;SHT31;53438;48.898;2.308;2024-03-23T08:23:43;9.18;73.50
66582;SHT31;53438;48.898;2.308;2024-03-23T08:26:10;8.95;73.98
66582;SHT31;53438;48.898;2.308;2024-03-23T08:28:36;9.07;73.19
66582;SHT31;53438;48.898;2.308;2024-03-23T08:31:05;9.36;72.61
66582;SHT31;53438;48.898;2.308;2024-03-23T08:33:31;9.18;72.51
66582;SHT31;53438;48.898;2.308;2024-03-23T08:35:58;9.29;72.44
66582;SHT31;53438;48.898;2.308;2024-03-23T08:38:24;9.31;72.77
66582;SHT31;53438;48.898;2.308;2024-03-23T08:41:03;9.55;71.22
66582;SHT31;53438;48.898;2.308;2024-03-23T08:43:29;9.72;71.35
66582;SHT31;53438;48.898;2.308;2024-03-23T08:46:10;9.08;73.17
66582;SHT31;53438;48.898;2.308;2024-03-23T08:48:39;8.88;73.46
66582;SHT31;53438;48.898;2.308;2024-03-23T08:51:09;8.77;74.35
66582;SHT31;53438;48.898;2.308;2024-03-23T08:53:35;8.18;78.24
66582;SHT31;53438;48.898;2.308;2024-03-23T08:56:07;7.74;80.25
66582;SHT31;53438;48.898;2.308;2024-03-23T08:58:33;7.71;79.96
66582;SHT31;53438;48.898;2.308;2024-03-23T09:01:09;7.67;79.60
66582;SHT31;53438;48.898;2.308;2024-03-23T09:03:35;8.03;77.81
66582;SHT31;53438;48.898;2.308;2024-03-23T09:06:02;8.25;77.82
66582;SHT31;53438;48.898;2.308;2024-03-23T09:08:31;8.39;76.82
66582;SHT31;53438;48.898;2.308;2024-03-23T09:10:56;8.64;76.38
66582;SHT31;53438;48.898;2.308;2024-03-23T09:13:22;8.94;73.99
66582;SHT31;53438;48.898;2.308;2024-03-23T09:15:51;8.92;72.89
66582;SHT31;53438;48.898;2.308;2024-03-23T09:18:17;9.26;71.33
66582;SHT31;53438;48.898;2.308;2024-03-23T09:20:43;9.35;70.51
66582;SHT31;53438;48.898;2.308;2024-03-23T09:23:08;9.52;70.83
66582;SHT31;53438;48.898;2.308;2024-03-23T09:25:37;9.76;69.97
66582;SHT31;53438;48.898;2.308;2024-03-23T09:28:04;9.70;69.73
66582;SHT31;53438;48.898;2.308;2024-03-23T09:30:30;9.73;69.53
66582;SHT31;53438;48.898;2.308;2024-03-23T09:32:55;9.42;72.38
66582;SHT31;53438;48.898;2.308;2024-03-23T09:35:21;9.39;72.00
66582;SHT31;53438;48.898;2.308;2024-03-23T09:37:46;9.38;72.69
66582;SHT31;53438;48.898;2.308;2024-03-23T09:40:12;9.11;72.70
66582;SHT31;53438;48.898;2.308;2024-03-23T09:42:37;8.84;72.47
66582;SHT31;53438;48.898;2.308;2024-03-23T09:45:05;8.60;73.31
66582;SHT31;53438;48.898;2.308;2024-03-23T09:47:33;8.71;71.82
66582;SHT31;53438;48.898;2.308;2024-03-23T09:49:59;8.74;71.06
66582;SHT31;53438;48.898;2.308;2024-03-23T09:52:25;8.81;71.15
66582;SHT31;53438;48.898;2.308;2024-03-23T09:54:51;8.61;71.46
66582;SHT31;53438;48.898;2.308;2024-03-23T09:57:16;9.00;71.23
66582;SHT31;53438;48.898;2.308;2024-03-23T09:59:41;9.19;71.11
66582;SHT31;53438;48.898;2.308;2024-03-23T10:02:07;9.38;70.44
66582;SHT31;53438;48.898;2.308;2024-03-23T10:04:39;9.45;70.18
66582;SHT31;53438;48.898;2.308;2024-03-23T10:07:12;9.59;70.24
66582;SHT31;53438;48.898;2.308;2024-03-23T10:09:38;9.60;69.90
66582;SHT31;53438;48.898;2.308;2024-03-23T10:12:15;9.79;70.07
66582;SHT31;53438;48.898;2.308;2024-03-23T10:14:41;9.52;69.38
66582;SHT31;53438;48.898;2.308;2024-03-23T10:17:15;9.73;69.72
66582;SHT31;53438;48.898;2.308;2024-03-23T10:19:49;9.65;68.35
66582;SHT31;53438;48.898;2.308;2024-03-23T10:22:25;9.50;69.11
66582;SHT31;53438;48.898;2.308;2024-03-23T10:24:50;9.80;70.05
66582;SHT31;53438;48.898;2.308;2024-03-23T10:27:19;9.83;68.51
66582;SHT31;53438;48.898;2.308;2024-03-23T10:29:49;9.69;67.20
66582;SHT31;53438;48.898;2.308;2024-03-23T10:32:16;9.65;67.00
66582;SHT31;53438;48.898;2.308;2024-03-23T10:34:42;9.96;67.63
66582;SHT31;53438;48.898;2.308;2024-03-23T10:37:08;10.04;67.49
66582;SHT31;53438;48.898;2.308;2024-03-23T10:39:38;10.08;66.83
66582;SHT31;53438;48.898;2.308;2024-03-23T10:42:05;10.03;66.10
66582;SHT31;53438;48.898;2.308;2024-03-23T10:44:31;10.08;65.99
66582;SHT31;53438;48.898;2.308;2024-03-23T10:47:06;10.17;66.40
66582;SHT31;53438;48.898;2.308;2024-03-23T10:49:33;10.25;66.07
66582;SHT31;53438;48.898;2.308;2024-03-23T10:52:05;10.27;66.40
66582;SHT31;53438;48.898;2.308;2024-03-23T10:54:32;10.06;65.17
66582;SHT31;53438;48.898;2.308;2024-03-23T10:57:06;10.30;64.00
66582;SHT31;53438;48.898;2.308;2024-03-23T10:59:34;10.42;65.07
66582;SHT31;53438;48.898;2.308;2024-03-23T11:02:01;10.55;63.72
66582;SHT31;53438;48.898;2.308;2024-03-23T11:04:35;10.64;62.59
66582;SHT31;53438;48.898;2.308;2024-03-23T11:07:02;10.79;62.19
66582;SHT31;53438;48.898;2.308;2024-03-23T11:09:41;10.77;62.77
66582;SHT31;53438;48.898;2.308;2024-03-23T11:14:51;10.69;61.52
66582;SHT31;53438;48.898;2.308;2024-03-23T11:17:20;10.73;60.97
66582;SHT31;53438;48.898;2.308;2024-03-23T11:20:06;10.83;60.33
66582;SHT31;53438;48.898;2.308;2024-03-23T11:22:44;10.91;59.98
66582;SHT31;53438;48.898;2.308;2024-03-23T11:25:21;11.12;59.89
66582;SHT31;53438;48.898;2.308;2024-03-23T11:27:58;11.28;60.46
66582;SHT31;53438;48.898;2.308;2024-03-23T11:30:27;11.67;58.26
66582;SHT31;53438;48.898;2.308;2024-03-23T11:32:55;11.64;57.25
66582;SHT31;53438;48.898;2.308;2024-03-23T11:35:28;11.55;57.27
66582;SHT31;53438;48.898;2.308;2024-03-23T11:38:15;11.28;57.37
66582;SHT31;53438;48.898;2.308;2024-03-23T11:40:41;11.16;57.96
66582;SHT31;53438;48.898;2.308;2024-03-23T11:43:12;11.30;57.16
66582;SHT31;53438;48.898;2.308;2024-03-23T11:45:40;11.48;57.77
66582;SHT31;53438;48.898;2.308;2024-03-23T11:48:08;11.67;56.78
66582;SHT31;53438;48.898;2.308;2024-03-23T11:50:37;11.89;55.26
66582;SHT31;53438;48.898;2.308;2024-03-23T11:53:16;11.75;53.56
66582;SHT31;53438;48.898;2.308;2024-03-23T11:58:11;11.82;54.89
66582;SHT31;53438;48.898;2.308;2024-03-23T12:00:37;11.88;53.95
66582;SHT31;53438;48.898;2.308;2024-03-23T12:03:03;12.06;52.39
66582;SHT31;53438;48.898;2.308;2024-03-23T12:05:29;12.04;52.13
66582;SHT31;53438;48.898;2.308;2024-03-23T12:07:55;12.16;51.04
66582;SHT31;53438;48.898;2.308;2024-03-23T12:10:20;11.75;49.24
66582;SHT31;53438;48.898;2.308;2024-03-23T12:12:46;12.01;50.33
66582;SHT31;53438;48.898;2.308;2024-03-23T12:15:11;12.11;51.27
66582;SHT31;53438;48.898;2.308;2024-03-23T12:17:38;11.96;49.71
66582;SHT31;53438;48.898;2.308;2024-03-23T12:20:04;12.16;50.33
66582;SHT31;53438;48.898;2.308;2024-03-23T12:22:30;11.95;50.58
66582;SHT31;53438;48.898;2.308;2024-03-23T12:24:56;11.86;49.88
66582;SHT31;53438;48.898;2.308;2024-03-23T12:27:23;11.94;51.71
66582;SHT31;53438;48.898;2.308;2024-03-23T12:29:48;12.23;51.51
66582;SHT31;53438;48.898;2.308;2024-03-23T12:32:14;12.34;51.16
66582;SHT31;53438;48.898;2.308;2024-03-23T12:34:40;12.57;52.02
66582;SHT31;53438;48.898;2.308;2024-03-23T12:37:06;12.43;52.25
66582;SHT31;53438;48.898;2.308;2024-03-23T12:39:32;12.19;52.43
66582;SHT31;53438;48.898;2.308;2024-03-23T12:41:57;11.94;51.88
66582;SHT31;53438;48.898;2.308;2024-03-23T12:44:22;12.21;51.36
66582;SHT31;53438;48.898;2.308;2024-03-23T12:46:48;12.09;53.12
66582;SHT31;53438;48.898;2.308;2024-03-23T12:49:13;12.33;50.61
66582;SHT31;53438;48.898;2.308;2024-03-23T12:51:38;12.34;50.59
66582;SHT31;53438;48.898;2.308;2024-03-23T12:54:04;12.22;50.63
66582;SHT31;53438;48.898;2.308;2024-03-23T12:56:30;12.36;51.10
66582;SHT31;53438;48.898;2.308;2024-03-23T12:58:56;12.30;51.28
66582;SHT31;53438;48.898;2.308;2024-03-23T13:01:23;11.86;50.02
66582;SHT31;53438;48.898;2.308;2024-03-23T13:03:50;11.99;50.78
66582;SHT31;53438;48.898;2.308;2024-03-23T13:06:16;11.88;50.60
66582;SHT31;53438;48.898;2.308;2024-03-23T13:08:44;12.08;51.26
66582;SHT31;53438;48.898;2.308;2024-03-23T13:11:10;12.09;50.44
66582;SHT31;53438;48.898;2.308;2024-03-23T13:13:36;11.91;50.21
66582;SHT31;53438;48.898;2.308;2024-03-23T13:16:01;11.99;51.20
66582;SHT31;53438;48.898;2.308;2024-03-23T13:18:31;11.68;51.13
66582;SHT31;53438;48.898;2.308;2024-03-23T13:20:56;11.48;54.76
66582;SHT31;53438;48.898;2.308;2024-03-23T13:23:22;11.17;60.22
66582;SHT31;53438;48.898;2.308;2024-03-23T13:25:55;10.85;59.66
66582;SHT31;53438;48.898;2.308;2024-03-23T13:28:21;10.96;59.53
66582;SHT31;53438;48.898;2.308;2024-03-23T13:30:54;10.80;59.25
66582;SHT31;53438;48.898;2.308;2024-03-23T13:33:19;11.05;59.30
66582;SHT31;53438;48.898;2.308;2024-03-23T13:35:51;11.28;59.08
66582;SHT31;53438;48.898;2.308;2024-03-23T13:38:17;11.19;57.45
66582;SHT31;53438;48.898;2.308;2024-03-23T13:41:11;10.83;56.92
66582;SHT31;53438;48.898;2.308;2024-03-23T13:43:37;11.00;58.82
66582;SHT31;53438;48.898;2.308;2024-03-23T13:46:03;10.80;60.78
66582;SHT31;53438;48.898;2.308;2024-03-23T13:48:28;10.55;61.76
66582;SHT31;53438;48.898;2.308;2024-03-23T13:51:03;10.16;62.28
66582;SHT31;53438;48.898;2.308;2024-03-23T13:53:29;10.44;62.56
66582;SHT31;53438;48.898;2.308;2024-03-23T13:55:54;10.61;62.83
66582;SHT31;53438;48.898;2.308;2024-03-23T13:58:20;10.24;63.25
66582;SHT31;53438;48.898;2.308;2024-03-23T14:00:46;10.51;63.47
66582;SHT31;53438;48.898;2.308;2024-03-23T14:03:12;10.68;63.66
66582;SHT31;53438;48.898;2.308;2024-03-23T14:05:38;10.72;63.75
66582;SHT31;53438;48.898;2.308;2024-03-23T14:08:10;10.59;61.99
66582;SHT31;53438;48.898;2.308;2024-03-23T14:10:36;10.55;61.78
66582;SHT31;53438;48.898;2.308;2024-03-23T14:13:02;10.52;61.89
66582;SHT31;53438;48.898;2.308;2024-03-23T14:15:30;10.72;61.42
66582;SHT31;53438;48.898;2.308;2024-03-23T14:17:56;10.72;61.88
66582;SHT31;53438;48.898;2.308;2024-03-23T14:20:22;10.96;60.96
66582;SHT31;53438;48.898;2.308;2024-03-23T14:22:51;11.06;60.44
66582;SHT31;53438;48.898;2.308;2024-03-23T14:25:16;11.09;60.27
66582;SHT31;53438;48.898;2.308;2024-03-23T14:27:45;11.15;60.98
66582;SHT31;53438;48.898;2.308;2024-03-23T14:30:11;10.85;61.23
66582;SHT31;53438;48.898;2.308;2024-03-23T14:32:40;11.12;61.15
66582;SHT31;53438;48.898;2.308;2024-03-23T14:35:06;10.95;61.50
66582;SHT31;53438;48.898;2.308;2024-03-23T14:37:32;11.10;61.97
66582;SHT31;53438;48.898;2.308;2024-03-23T14:39:58;11.16;61.92
66582;SHT31;53438;48.898;2.308;2024-03-23T14:42:24;10.88;61.83
66582;SHT31;53438;48.898;2.308;2024-03-23T14:44:50;10.92;61.69
66582;SHT31;53438;48.898;2.308;2024-03-23T14:47:17;11.00;60.96
66582;SHT31;53438;48.898;2.308;2024-03-23T14:49:43;10.96;59.84
66582;SHT31;53438;48.898;2.308;2024-03-23T14:52:13;11.02;60.16
66582;SHT31;53438;48.898;2.308;2024-03-23T14:54:39;11.10;59.83
66582;SHT31;53438;48.898;2.308;2024-03-23T14:57:04;11.15;59.60
66582;SHT31;53438;48.898;2.308;2024-03-23T14:59:31;11.12;59.14
66582;SHT31;53438;48.898;2.308;2024-03-23T15:01:56;11.15;58.75
66582;SHT31;53438;48.898;2.308;2024-03-23T15:04:22;11.03;59.62
66582;SHT31;53438;48.898;2.308;2024-03-23T15:06:47;11.15;59.54
66582;SHT31;53438;48.898;2.308;2024-03-23T15:09:15;11.15;59.10
66582;SHT31;53438;48.898;2.308;2024-03-23T15:11:40;10.92;59.89
66582;SHT31;53438;48.898;2.308;2024-03-23T15:14:05;10.68;60.34
66582;SHT31;53438;48.898;2.308;2024-03-23T15:16:32;10.69;61.91
66582;SHT31;53438;48.898;2.308;2024-03-23T15:18:58;10.85;63.79
66582;SHT31;53438;48.898;2.308;2024-03-23T15:21:23;10.49;63.32
66582;SHT31;53438;48.898;2.308;2024-03-23T15:23:48;10.46;63.98
66582;SHT31;53438;48.898;2.308;2024-03-23T15:26:14;10.28;65.78
66582;SHT31;53438;48.898;2.308;2024-03-23T15:28:41;10.22;66.77
66582;SHT31;53438;48.898;2.308;2024-03-23T15:31:24;10.34;71.33
66582;SHT31;53438;48.898;2.308;2024-03-23T15:33:50;9.80;76.82
66582;SHT31;53438;48.898;2.308;2024-03-23T15:36:16;7.47;90.53
66582;SHT31;53438;48.898;2.308;2024-03-23T15:38:42;7.51;88.58
66582;SHT31;53438;48.898;2.308;2024-03-23T15:41:08;7.27;88.97
66582;SHT31;53438;48.898;2.308;2024-03-23T15:43:34;6.71;89.21
66582;SHT31;53438;48.898;2.308;2024-03-23T15:46:00;6.68;89.42
66582;SHT31;53438;48.898;2.308;2024-03-23T15:48:27;6.78;92.71
66582;SHT31;53438;48.898;2.308;2024-03-23T15:50:54;7.22;90.65
66582;SHT31;53438;48.898;2.308;2024-03-23T15:53:20;7.37;89.09
66582;SHT31;53438;48.898;2.308;2024-03-23T15:55:52;7.64;87.71
66582;SHT31;53438;48.898;2.308;2024-03-23T15:58:18;7.99;87.53
66582;SHT31;53438;48.898;2.308;2024-03-23T16:00:43;8.15;86.62
66582;SHT31;53438;48.898;2.308;2024-03-23T16:03:08;8.16;86.00
66582;SHT31;53438;48.898;2.308;2024-03-23T16:05:33;8.08;83.68
66582;SHT31;53438;48.898;2.308;2024-03-23T16:07:59;8.10;84.46
66582;SHT31;53438;48.898;2.308;2024-03-23T16:10:24;8.32;84.87
66582;SHT31;53438;48.898;2.308;2024-03-23T16:12:49;7.89;81.28
66582;SHT31;53438;48.898;2.308;2024-03-23T16:15:15;8.16;83.00
66582;SHT31;53438;48.898;2.308;2024-03-23T16:17:40;8.32;81.89
66582;SHT31;53438;48.898;2.308;2024-03-23T16:20:06;8.53;80.37
66582;SHT31;53438;48.898;2.308;2024-03-23T16:22:34;8.59;79.30
66582;SHT31;53438;48.898;2.308;2024-03-23T16:24:59;8.53;78.33
66582;SHT31;53438;48.898;2.308;2024-03-23T16:27:25;8.56;78.41
66582;SHT31;53438;48.898;2.308;2024-03-23T16:29:50;8.59;77.27
66582;SHT31;53438;48.898;2.308;2024-03-23T16:32:15;8.53;76.26
66582;SHT31;53438;48.898;2.308;2024-03-23T16:34:42;8.61;76.07
66582;SHT31;53438;48.898;2.308;2024-03-23T16:37:07;8.50;77.11
66582;SHT31;53438;48.898;2.308;2024-03-23T16:39:35;8.32;75.35
66582;SHT31;53438;48.898;2.308;2024-03-23T16:42:01;8.49;75.83
66582;SHT31;53438;48.898;2.308;2024-03-23T16:44:26;8.45;76.12
66582;SHT31;53438;48.898;2.308;2024-03-23T16:46:52;8.49;76.99
66582;SHT31;53438;48.898;2.308;2024-03-23T16:49:17;8.37;75.54
66582;SHT31;53438;48.898;2.308;2024-03-23T16:51:42;8.09;76.87
66582;SHT31;53438;48.898;2.308;2024-03-23T16:54:07;8.06;76.06
66582;SHT31;53438;48.898;2.308;2024-03-23T16:56:33;8.16;78.50
66582;SHT31;53438;48.898;2.308;2024-03-23T16:58:59;7.99;79.75
66582;SHT31;53438;48.898;2.308;2024-03-23T17:01:24;7.51;81.64
66582;SHT31;53438;48.898;2.308;2024-03-23T17:03:52;7.63;83.00
66582;SHT31;53438;48.898;2.308;2024-03-23T17:06:18;7.63;81.61
66582;SHT31;53438;48.898;2.308;2024-03-23T17:08:45;7.51;82.53
66582;SHT31;53438;48.898;2.308;2024-03-23T17:11:12;6.93;86.31
66582;SHT31;53438;48.898;2.308;2024-03-23T17:13:37;6.86;89.36
66582;SHT31;53438;48.898;2.308;2024-03-23T17:16:03;7.19;87.12
66582;SHT31;53438;48.898;2.308;2024-03-23T17:18:31;7.03;83.51
66582;SHT31;53438;48.898;2.308;2024-03-23T17:20:57;7.07;84.09
66582;SHT31;53438;48.898;2.308;2024-03-23T17:23:30;6.78;83.72
66582;SHT31;53438;48.898;2.308;2024-03-23T17:25:55;6.95;84.85
66582;SHT31;53438;48.898;2.308;2024-03-23T17:28:21;6.86;84.16
66582;SHT31;53438;48.898;2.308;2024-03-23T17:30:47;6.89;83.68
66582;SHT31;53438;48.898;2.308;2024-03-23T17:33:16;7.02;83.85
66582;SHT31;53438;48.898;2.308;2024-03-23T17:35:47;7.24;83.81
66582;SHT31;53438;48.898;2.308;2024-03-23T17:38:12;7.43;84.13
66582;SHT31;53438;48.898;2.308;2024-03-23T17:40:38;7.50;83.30
66582;SHT31;53438;48.898;2.308;2024-03-23T17:43:03;7.19;82.21
66582;SHT31;53438;48.898;2.308;2024-03-23T17:45:29;7.48;83.05
66582;SHT31;53438;48.898;2.308;2024-03-23T17:47:54;7.61;82.79
66582;SHT31;53438;48.898;2.308;2024-03-23T17:50:22;7.31;81.51
66582;SHT31;53438;48.898;2.308;2024-03-23T17:52:47;7.56;82.26
66582;SHT31;53438;48.898;2.308;2024-03-23T17:55:13;7.71;82.10
66582;SHT31;53438;48.898;2.308;2024-03-23T17:57:39;7.84;81.72
66582;SHT31;53438;48.898;2.308;2024-03-23T18:00:04;7.79;81.34
66582;SHT31;53438;48.898;2.308;2024-03-23T18:02:34;7.91;81.14
66582;SHT31;53438;48.898;2.308;2024-03-23T18:04:59;7.91;80.16
66582;SHT31;53438;48.898;2.308;2024-03-23T18:07:25;7.96;79.90
66582;SHT31;53438;48.898;2.308;2024-03-23T18:09:51;8.06;79.61
66582;SHT31;53438;48.898;2.308;2024-03-23T18:12:16;8.12;79.01
66582;SHT31;53438;48.898;2.308;2024-03-23T18:14:42;8.05;78.82
66582;SHT31;53438;48.898;2.308;2024-03-23T18:17:07;8.10;78.66
66582;SHT31;53438;48.898;2.308;2024-03-23T18:19:33;8.12;79.34
66582;SHT31;53438;48.898;2.308;2024-03-23T18:21:58;8.01;79.33
66582;SHT31;53438;48.898;2.308;2024-03-23T18:24:23;7.89;79.14
66582;SHT31;53438;48.898;2.308;2024-03-23T18:26:49;7.89;79.01
66582;SHT31;53438;48.898;2.308;2024-03-23T18:29:15;8.10;79.53
66582;SHT31;53438;48.898;2.308;2024-03-23T18:31:42;8.03;80.06
66582;SHT31;53438;48.898;2.308;2024-03-23T18:34:07;8.18;79.58
66582;SHT31;53438;48.898;2.308;2024-03-23T18:36:33;8.12;79.08
66582;SHT31;53438;48.898;2.308;2024-03-23T18:38:59;8.05;79.14
66582;SHT31;53438;48.898;2.308;2024-03-23T18:41:27;7.89;80.57
66582;SHT31;53438;48.898;2.308;2024-03-23T18:43:54;7.99;80.04
66582;SHT31;53438;48.898;2.308;2024-03-23T18:46:20;7.96;80.04
66582;SHT31;53438;48.898;2.308;2024-03-23T18:48:46;8.12;80.21
66582;SHT31;53438;48.898;2.308;2024-03-23T18:51:11;8.18;80.76
66582;SHT31;53438;48.898;2.308;2024-03-23T18:53:36;7.95;81.14
66582;SHT31;53438;48.898;2.308;2024-03-23T18:56:02;7.94;81.28
66582;SHT31;53438;48.898;2.308;2024-03-23T18:58:30;8.09;80.79
66582;SHT31;53438;48.898;2.308;2024-03-23T19:03:23;7.75;79.50
66582;SHT31;53438;48.898;2.308;2024-03-23T19:05:53;7.98;79.59
66582;SHT31;53438;48.898;2.308;2024-03-23T19:08:20;7.95;79.99
66582;SHT31;53438;48.898;2.308;2024-03-23T19:10:53;7.99;79.77
66582;SHT31;53438;48.898;2.308;2024-03-23T19:13:19;7.73;79.29
66582;SHT31;53438;48.898;2.308;2024-03-23T19:15:44;7.91;79.89
66582;SHT31;53438;48.898;2.308;2024-03-23T19:18:10;7.88;80.28
66582;SHT31;53438;48.898;2.308;2024-03-23T19:20:35;7.84;80.74
66582;SHT31;53438;48.898;2.308;2024-03-23T19:23:00;7.82;79.71
66582;SHT31;53438;48.898;2.308;2024-03-23T19:25:26;7.89;78.96
66582;SHT31;53438;48.898;2.308;2024-03-23T19:27:51;7.92;79.66
66582;SHT31;53438;48.898;2.308;2024-03-23T19:30:16;7.89;79.04
66582;SHT31;53438;48.898;2.308;2024-03-23T19:32:42;7.89;79.51
66582;SHT31;53438;48.898;2.308;2024-03-23T19:35:07;7.71;79.37
66582;SHT31;53438;48.898;2.308;2024-03-23T19:37:34;7.85;79.51